createdAt,value
2023-04-15T00:01:08.173Z,94629.22
2023-04-15T00:06:13.290Z,94632.41
2023-04-15T00:11:25.885Z,94626.03
2023-04-15T00:16:32.989Z,94631.06
2023-04-15T00:21:38.464Z,94624.69
2023-04-15T00:26:43.925Z,94617.78
2023-04-15T00:31:51.358Z,94606.03
2023-04-15T00:36:56.369Z,94606.88
2023-04-15T00:42:07.242Z,94607.94
2023-04-15T00:47:12.360Z,94601.81
2023-04-15T00:52:16.238Z,94595.66
2023-04-15T00:57:30.561Z,94599.94
2023-04-15T01:02:34.904Z,94603.91
2023-04-15T01:07:39.682Z,94607.66
2023-04-15T01:12:44.677Z,94611.09
2023-04-15T01:17:47.660Z,94598.59
2023-04-15T01:22:54.312Z,94603.09
2023-04-15T01:27:57.300Z,94603.38
2023-04-15T01:33:01.194Z,94605.78
2023-04-15T01:38:04.444Z,94601.50
2023-04-15T01:43:09.560Z,94603.09
2023-04-15T01:48:14.074Z,94611.09
2023-04-15T01:53:19.707Z,94602.88
2023-04-15T01:58:24.410Z,94606.31
2023-04-15T02:03:30.876Z,94599.38
2023-04-15T02:08:36.914Z,94602.31
2023-04-15T02:13:40.324Z,94597.78
2023-04-15T02:18:52.822Z,94597.00
2023-04-15T02:23:57.295Z,94598.34
2023-04-15T02:29:01.333Z,94603.13
2023-04-15T02:34:05.928Z,94599.38
2023-04-15T02:39:09.026Z,94594.59
2023-04-15T02:44:13.513Z,94590.88
2023-04-15T02:49:18.476Z,94590.88
2023-04-15T02:54:22.903Z,94593.81
2023-04-15T02:59:26.826Z,94596.72
2023-04-15T03:04:31.477Z,94592.47
2023-04-15T03:09:35.080Z,94597.28
2023-04-15T03:14:41.093Z,94598.88
2023-04-15T03:19:43.911Z,94603.91
2023-04-15T03:24:47.171Z,94610.59
2023-04-15T03:29:51.154Z,94610.03
2023-04-15T03:34:55.081Z,94610.59
2023-04-15T03:39:59.030Z,94611.63
2023-04-15T03:45:03.535Z,94611.63
2023-04-15T03:50:07.297Z,94616.16
2023-04-15T03:55:20.601Z,94610.03
2023-04-15T04:00:23.924Z,94611.59
2023-04-15T04:05:31.203Z,94615.06
2023-04-15T04:10:37.201Z,94616.66
2023-04-15T04:15:42.270Z,94615.31
2023-04-15T04:20:46.149Z,94614.50
2023-04-15T04:25:58.884Z,94613.69
2023-04-15T04:31:02.380Z,94615.88
2023-04-15T04:36:06.227Z,94617.97
2023-04-15T04:41:09.299Z,94609.47
2023-04-15T04:46:14.950Z,94620.13
2023-04-15T04:51:18.654Z,94619.09
2023-04-15T04:56:21.793Z,94610.03
2023-04-15T05:01:26.769Z,94614.84
2023-04-15T05:06:32.975Z,94619.66
2023-04-15T05:11:40.580Z,94609.00
2023-04-15T05:16:44.665Z,94602.06
2023-04-15T05:21:47.983Z,94606.31
2023-04-15T05:26:51.957Z,94607.94
2023-04-15T05:31:55.059Z,94613.25
2023-04-15T05:36:58.033Z,94612.72
2023-04-15T05:42:03.558Z,94601.28
2023-04-15T05:47:07.919Z,94610.06
2023-04-15T05:52:11.626Z,94603.41
2023-04-15T05:57:16.571Z,94601.00
2023-04-15T06:02:21.106Z,94595.66
2023-04-15T06:07:29.398Z,94607.13
2023-04-15T06:12:32.418Z,94610.06
2023-04-15T06:17:35.745Z,94610.03
2023-04-15T06:22:42.120Z,94615.88
2023-04-15T06:27:46.258Z,94612.09
2023-04-15T06:32:49.991Z,94598.78
2023-04-15T06:37:57.169Z,94603.31
2023-04-15T06:43:00.990Z,94609.88
2023-04-15T06:48:08.708Z,94607.75
2023-04-15T06:53:12.629Z,94599.34
2023-04-15T06:58:15.773Z,94611.66
2023-04-15T07:03:19.157Z,94608.50
2023-04-15T07:08:22.562Z,94601.03
2023-04-15T07:13:25.950Z,94607.94
2023-04-15T07:18:32.163Z,94601.53
2023-04-15T07:23:35.125Z,94609.84
2023-04-15T07:28:37.865Z,94607.50
2023-04-15T07:33:41.612Z,94608.00
2023-04-15T07:38:44.849Z,94613.25
2023-04-15T07:43:51.158Z,94614.84
2023-04-15T07:48:58.308Z,94606.13
2023-04-15T07:54:04.340Z,94611.47
2023-04-15T07:59:07.879Z,94607.28
2023-04-15T08:04:11.104Z,94601.84
2023-04-15T08:09:19.164Z,94601.28
2023-04-15T08:14:24.326Z,94606.03
2023-04-15T08:19:27.945Z,94591.09
2023-04-15T08:24:32.221Z,94595.47
2023-04-15T08:29:35.384Z,94595.47
2023-04-15T08:34:39.706Z,94595.91
2023-04-15T08:39:45.784Z,94586.75
2023-04-15T08:44:50.655Z,94597.09
2023-04-15T08:50:03.509Z,94590.53
2023-04-15T08:55:06.497Z,94596.28
2023-04-15T09:00:11.508Z,94607.13
2023-04-15T09:05:18.877Z,94608.41
2023-04-15T09:10:22.491Z,94599.97
2023-04-15T09:15:25.798Z,94620.66
2023-04-15T09:20:37.539Z,94628.25
2023-04-15T09:25:42.775Z,94623.66
2023-04-15T09:30:49.168Z,94624.84
2023-04-15T09:35:58.292Z,94630.50
2023-04-15T09:41:01.590Z,94633.50
2023-04-15T09:51:33.093Z,94633.22
2023-04-15T09:56:36.180Z,94648.06
2023-04-15T10:01:38.740Z,94644.34
2023-04-15T10:06:42.230Z,94647.25
2023-04-15T10:11:45.244Z,94649.09
2023-04-15T10:16:49.112Z,94638.84
2023-04-15T10:21:53.292Z,94638.25
2023-04-15T10:26:55.903Z,94648.50
2023-04-15T10:31:58.303Z,94654.38
2023-04-15T10:37:02.458Z,94655.00
2023-04-15T10:42:05.598Z,94655.72
2023-04-15T10:47:08.034Z,94648.03
2023-04-15T10:52:11.065Z,94655.41
2023-04-15T10:57:13.923Z,94654.72
2023-04-15T11:02:22.758Z,94663.34
2023-04-15T11:07:25.181Z,94661.97
2023-04-15T11:12:27.567Z,94658.31
2023-04-15T11:17:31.165Z,94664.44
2023-04-15T11:22:34.532Z,94660.59
2023-04-15T11:27:38.385Z,94664.63
2023-04-15T11:32:42.245Z,94672.44
2023-04-15T11:37:44.665Z,94666.84
2023-04-15T11:42:49.878Z,94677.88
2023-04-15T11:47:53.328Z,94668.59
2023-04-15T11:52:55.790Z,94673.03
2023-04-15T11:57:58.586Z,94676.50
2023-04-15T12:03:01.090Z,94687.47
2023-04-15T12:08:03.797Z,94680.00
2023-04-15T12:13:06.338Z,94690.56
2023-04-15T12:18:09.063Z,94696.34
2023-04-15T12:23:11.792Z,94693.88
2023-04-15T12:28:14.399Z,94697.91
2023-04-15T12:33:17.666Z,94697.41
2023-04-15T12:38:21.204Z,94701.28
2023-04-15T12:43:24.246Z,94711.84
2023-04-15T12:48:27.894Z,94720.41
2023-04-15T12:53:30.237Z,94726.44
2023-04-15T12:58:33.382Z,94728.72
2023-04-15T13:03:35.963Z,94731.03
2023-04-15T13:08:42.665Z,94730.34
2023-04-15T13:13:57.272Z,94743.25
2023-04-15T13:19:00.484Z,94745.03
2023-04-15T13:24:03.979Z,94760.81
2023-04-15T13:29:07.286Z,94766.63
2023-04-15T13:34:10.468Z,94766.22
2023-04-15T13:39:13.245Z,94767.66
2023-04-15T13:44:15.735Z,94770.50
2023-04-15T13:49:18.184Z,94780.47
2023-04-15T13:54:20.647Z,94781.75
2023-04-15T13:59:23.081Z,94800.38
2023-04-15T14:04:25.559Z,94804.97
2023-04-15T14:09:28.180Z,94807.06
2023-04-15T14:14:31.755Z,94811.84
2023-04-15T14:19:34.167Z,94810.63
2023-04-15T14:24:36.593Z,94819.81
2023-04-15T14:29:39.018Z,94833.81
2023-04-15T14:34:41.763Z,94836.25
2023-04-15T14:39:44.325Z,94845.00
2023-04-15T14:44:46.781Z,94847.69
2023-04-15T14:49:49.488Z,94856.56
2023-04-15T14:54:52.160Z,94854.84
2023-04-15T14:59:56.713Z,94880.69
2023-04-15T15:04:59.252Z,94900.03
2023-04-15T15:10:01.763Z,94909.59
2023-04-15T15:15:12.243Z,94931.53
2023-04-15T15:20:19.366Z,94948.19
2023-04-15T15:25:25.425Z,94949.50
2023-04-15T15:30:37.794Z,94963.13
2023-04-15T15:35:40.962Z,94966.31
2023-04-15T15:40:43.376Z,94967.31
2023-04-15T15:45:45.759Z,94972.69
2023-04-15T15:50:48.270Z,94988.13
2023-04-15T15:55:53.187Z,94989.72
2023-04-15T16:00:56.373Z,94998.78
2023-04-15T16:05:58.930Z,95003.31
2023-04-15T16:11:01.472Z,95001.97
2023-04-15T16:16:03.952Z,95005.22
2023-04-15T16:21:06.317Z,95012.19
2023-04-15T16:26:08.709Z,95018.34
2023-04-15T16:31:11.146Z,95016.47
2023-04-15T16:36:14.075Z,95027.13
2023-04-15T16:41:16.666Z,95030.84
2023-04-15T16:46:19.421Z,95028.72
2023-04-15T16:51:21.991Z,95035.66
2023-04-15T16:56:24.688Z,95038.00
2023-04-15T17:01:27.284Z,95055.00
2023-04-15T17:06:30.735Z,95060.25
2023-04-15T17:11:35.010Z,95076.22
2023-04-15T17:16:37.486Z,95075.66
2023-04-15T17:21:39.804Z,95086.59
2023-04-15T17:26:42.140Z,95098.53
2023-04-15T17:31:44.483Z,95104.63
2023-04-15T17:36:46.807Z,95108.34
2023-04-15T17:41:50.131Z,95120.63
2023-04-15T17:46:53.661Z,95129.66
2023-04-15T17:51:56.308Z,95133.91
2023-04-15T17:56:59.465Z,95136.25
2023-04-15T18:02:01.871Z,95147.44
2023-04-15T18:07:04.390Z,95156.22
2023-04-15T18:12:07.670Z,95163.97
2023-04-15T18:17:10.223Z,95181.75
2023-04-15T18:22:13.097Z,95184.41
2023-04-15T18:27:15.546Z,95185.50
2023-04-15T18:32:18.864Z,95197.69
2023-04-15T18:37:21.420Z,95202.69
2023-04-15T18:42:24.069Z,95210.75
2023-04-15T18:47:28.192Z,95213.94
2023-04-15T18:52:30.809Z,95228.59
2023-04-15T18:57:35.177Z,95235.22
2023-04-15T19:02:39.165Z,95237.03
2023-04-15T19:07:42.329Z,95236.47
2023-04-15T19:12:44.752Z,95248.97
2023-04-15T19:17:47.251Z,95262.06
2023-04-15T19:22:50.526Z,95266.06
2023-04-15T19:27:54.095Z,95273.56
2023-04-15T19:32:56.537Z,95277.59
2023-04-15T19:37:59.812Z,95281.31
2023-04-15T19:43:03.099Z,95280.53
2023-04-15T19:48:07.143Z,95293.31
2023-04-15T19:53:09.961Z,95295.78
2023-04-15T19:58:12.236Z,95297.91
2023-04-15T20:03:16.139Z,95298.91
2023-04-15T20:08:21.240Z,95299.16
2023-04-15T20:13:23.702Z,95309.25
2023-04-15T20:18:26.928Z,95310.56
2023-04-15T20:23:29.614Z,95320.97
2023-04-15T20:28:32.731Z,95318.22
2023-04-15T20:33:35.468Z,95324.31
2023-04-15T20:38:37.855Z,95322.13
2023-04-15T20:43:41.117Z,95327.09
2023-04-15T20:48:43.881Z,95331.13
2023-04-15T20:53:50.404Z,95332.50
2023-04-15T20:58:53.060Z,95338.25
2023-04-15T21:03:57.622Z,95345.81
2023-04-15T21:09:04.117Z,95353.41
2023-04-15T21:14:07.204Z,95350.81
2023-04-15T21:19:10.842Z,95352.59
2023-04-15T21:24:15.372Z,95366.66
2023-04-15T21:29:18.399Z,95366.00
2023-04-15T21:34:21.375Z,95371.56
2023-04-15T21:39:31.317Z,95377.00
2023-04-15T21:44:33.628Z,95374.66
2023-04-15T21:49:36.008Z,95383.75
2023-04-15T21:54:38.753Z,95387.47
2023-04-15T21:59:41.048Z,95394.91
2023-04-15T22:04:43.477Z,95402.66
2023-04-15T22:09:46.405Z,95407.00
2023-04-15T22:14:48.774Z,95421.13
2023-04-15T22:20:00.498Z,95421.38
2023-04-15T22:25:05.917Z,95424.31
2023-04-15T22:30:09.009Z,95427.69
2023-04-15T22:35:12.430Z,95430.97
2023-04-15T22:40:15.917Z,95434.47
2023-04-15T22:45:28.242Z,95432.84
2023-04-15T22:50:36.408Z,95441.00
2023-04-15T22:55:40.769Z,95443.19
2023-04-15T23:00:43.111Z,95447.63
2023-04-15T23:05:55.443Z,95448.16
2023-04-15T23:10:57.853Z,95450.28
2023-04-15T23:16:00.381Z,95455.25
2023-04-15T23:21:03.132Z,95461.56
2023-04-15T23:26:05.533Z,95468.00
2023-04-15T23:31:07.940Z,95463.09
2023-04-15T23:36:10.648Z,95466.72
2023-04-15T23:41:13.335Z,95472.47
2023-04-15T23:46:15.990Z,95472.53
2023-04-15T23:51:18.368Z,95475.75
2023-04-15T23:56:21.380Z,95479.38
